Accueil
METAR-TAF:

METAR-TAF

Aéroports :

McKinley Park, Alaska, États-Unis

latitude: 63-44N, longitude: 148-55W, altitude: 524 m

Observation

Le bulletin a été fait il y a 58 minutes, à 01:56 UTC
Vent 6 kt de sud/sud-ouest
Température 15°C
Humidité 63%
Pression 1020 hPa
Visibilité: 16.1 km
Quelques nuages à une hauteur de 5000 ft
Nuages épars à une hauteur de 6000 ft
Ciel couvert à une hauteur de 9500 ft
pluie faible

METAR: PAIN 200156Z AUTO 20006KT 10SM -RA FEW050 SCT060 OVC095 15/08 A3012 RMK AO2 SLP213 P0000 T01500083

Heure: 18:54 (02:54 UTC)


TAF: absent

Observations et prévisions météorologiques de plus de 4000 aéroports (messages METAR et TAF).

Les stations disponibles sont représentées par des disques jaunes et rouges sur la carte.

Passer la souris dessus pour voir le nom de la station.

Cliquer dessus pour voir les observations et prévisions météorologiques.

Pour changer de carte: cliquez sur les boutons verts avec une croix noire pour zoomer, sur le bouton vert avec un tiret pour effectuer un zoom arrière, ou sur les flèches vertes pour les cartes adjacentes.


METAR-TAF: